sensor_id;sensor_type;location;lat;lon;timestamp;P1;durP1;ratioP1;P2;durP2;ratioP2
22967;SDS011;11650;48.106;-1.696;2023-10-08T00:01:52;13.93;;;6.90;;
22967;SDS011;11650;48.106;-1.696;2023-10-08T00:04:20;13.90;;;8.07;;
22967;SDS011;11650;48.106;-1.696;2023-10-08T00:06:46;21.07;;;7.27;;
22967;SDS011;11650;48.106;-1.696;2023-10-08T00:09:12;12.23;;;6.77;;
22967;SDS011;11650;48.106;-1.696;2023-10-08T00:11:39;13.90;;;7.27;;
22967;SDS011;11650;48.106;-1.696;2023-10-08T00:14:06;12.10;;;6.50;;
22967;SDS011;11650;48.106;-1.696;2023-10-08T00:16:35;14.10;;;6.97;;
22967;SDS011;11650;48.106;-1.696;2023-10-08T00:19:04;16.37;;;7.60;;
22967;SDS011;11650;48.106;-1.696;2023-10-08T00:21:34;16.37;;;7.90;;
22967;SDS011;11650;48.106;-1.696;2023-10-08T00:24:01;14.33;;;7.90;;
22967;SDS011;11650;48.106;-1.696;2023-10-08T00:26:31;14.43;;;7.10;;
22967;SDS011;11650;48.106;-1.696;2023-10-08T00:29:00;15.10;;;7.27;;
22967;SDS011;11650;48.106;-1.696;2023-10-08T00:31:26;15.27;;;6.97;;
22967;SDS011;11650;48.106;-1.696;2023-10-08T00:33:57;12.17;;;7.10;;
22967;SDS011;11650;48.106;-1.696;2023-10-08T00:36:23;11.47;;;6.93;;
22967;SDS011;11650;48.106;-1.696;2023-10-08T00:38:49;12.57;;;7.07;;
22967;SDS011;11650;48.106;-1.696;2023-10-08T00:41:18;11.60;;;6.83;;
22967;SDS011;11650;48.106;-1.696;2023-10-08T00:43:47;14.40;;;7.23;;
22967;SDS011;11650;48.106;-1.696;2023-10-08T00:46:13;14.37;;;7.23;;
22967;SDS011;11650;48.106;-1.696;2023-10-08T00:49:00;14.70;;;7.63;;
22967;SDS011;11650;48.106;-1.696;2023-10-08T00:51:53;12.10;;;7.57;;
22967;SDS011;11650;48.106;-1.696;2023-10-08T00:54:32;14.50;;;7.80;;
22967;SDS011;11650;48.106;-1.696;2023-10-08T00:57:08;14.80;;;7.27;;
22967;SDS011;11650;48.106;-1.696;2023-10-08T00:59:36;13.93;;;7.23;;
22967;SDS011;11650;48.106;-1.696;2023-10-08T01:02:21;14.30;;;7.23;;
22967;SDS011;11650;48.106;-1.696;2023-10-08T01:04:52;17.27;;;8.40;;
22967;SDS011;11650;48.106;-1.696;2023-10-08T01:07:19;18.87;;;8.10;;
22967;SDS011;11650;48.106;-1.696;2023-10-08T01:09:48;14.57;;;7.03;;
22967;SDS011;11650;48.106;-1.696;2023-10-08T01:12:24;12.53;;;7.23;;
22967;SDS011;11650;48.106;-1.696;2023-10-08T01:14:50;13.07;;;7.27;;
22967;SDS011;11650;48.106;-1.696;2023-10-08T01:17:18;11.07;;;6.93;;
22967;SDS011;11650;48.106;-1.696;2023-10-08T01:19:49;11.70;;;6.60;;
22967;SDS011;11650;48.106;-1.696;2023-10-08T01:22:25;12.27;;;6.50;;
22967;SDS011;11650;48.106;-1.696;2023-10-08T01:24:54;16.20;;;7.10;;
22967;SDS011;11650;48.106;-1.696;2023-10-08T01:27:20;12.67;;;6.83;;
22967;SDS011;11650;48.106;-1.696;2023-10-08T01:29:50;12.73;;;6.77;;
22967;SDS011;11650;48.106;-1.696;2023-10-08T01:32:20;15.47;;;6.80;;
22967;SDS011;11650;48.106;-1.696;2023-10-08T01:34:48;12.67;;;7.10;;
22967;SDS011;11650;48.106;-1.696;2023-10-08T01:37:14;12.43;;;6.97;;
22967;SDS011;11650;48.106;-1.696;2023-10-08T01:39:47;10.67;;;6.40;;
22967;SDS011;11650;48.106;-1.696;2023-10-08T01:42:15;13.10;;;7.23;;
22967;SDS011;11650;48.106;-1.696;2023-10-08T01:44:49;13.93;;;6.83;;
22967;SDS011;11650;48.106;-1.696;2023-10-08T01:47:20;14.93;;;6.87;;
22967;SDS011;11650;48.106;-1.696;2023-10-08T01:49:46;13.90;;;7.03;;
22967;SDS011;11650;48.106;-1.696;2023-10-08T01:52:12;10.90;;;6.53;;
22967;SDS011;11650;48.106;-1.696;2023-10-08T01:54:50;13.40;;;7.23;;
22967;SDS011;11650;48.106;-1.696;2023-10-08T01:57:19;12.73;;;6.57;;
22967;SDS011;11650;48.106;-1.696;2023-10-08T01:59:44;14.37;;;6.70;;
22967;SDS011;11650;48.106;-1.696;2023-10-08T02:02:10;14.23;;;6.30;;
22967;SDS011;11650;48.106;-1.696;2023-10-08T02:04:37;13.90;;;6.87;;
22967;SDS011;11650;48.106;-1.696;2023-10-08T02:07:03;15.07;;;7.30;;
22967;SDS011;11650;48.106;-1.696;2023-10-08T02:09:32;13.37;;;6.80;;
22967;SDS011;11650;48.106;-1.696;2023-10-08T02:12:02;13.60;;;6.83;;
22967;SDS011;11650;48.106;-1.696;2023-10-08T02:14:29;14.73;;;6.63;;
22967;SDS011;11650;48.106;-1.696;2023-10-08T02:16:56;14.60;;;7.27;;
22967;SDS011;11650;48.106;-1.696;2023-10-08T02:19:26;13.27;;;7.13;;
22967;SDS011;11650;48.106;-1.696;2023-10-08T02:21:53;12.53;;;6.70;;
22967;SDS011;11650;48.106;-1.696;2023-10-08T02:24:20;12.73;;;7.27;;
22967;SDS011;11650;48.106;-1.696;2023-10-08T02:26:52;14.40;;;6.37;;
22967;SDS011;11650;48.106;-1.696;2023-10-08T02:29:19;12.80;;;6.50;;
22967;SDS011;11650;48.106;-1.696;2023-10-08T02:31:46;11.27;;;7.10;;
22967;SDS011;11650;48.106;-1.696;2023-10-08T02:34:13;14.10;;;6.70;;
22967;SDS011;11650;48.106;-1.696;2023-10-08T02:36:39;11.67;;;6.43;;
22967;SDS011;11650;48.106;-1.696;2023-10-08T02:39:05;12.60;;;6.73;;
22967;SDS011;11650;48.106;-1.696;2023-10-08T02:41:52;13.07;;;6.90;;
22967;SDS011;11650;48.106;-1.696;2023-10-08T02:44:21;14.97;;;6.97;;
22967;SDS011;11650;48.106;-1.696;2023-10-08T02:46:48;14.23;;;6.90;;
22967;SDS011;11650;48.106;-1.696;2023-10-08T02:49:14;12.27;;;6.13;;
22967;SDS011;11650;48.106;-1.696;2023-10-08T02:51:49;11.70;;;6.47;;
22967;SDS011;11650;48.106;-1.696;2023-10-08T02:54:19;13.43;;;6.50;;
22967;SDS011;11650;48.106;-1.696;2023-10-08T02:56:51;11.40;;;6.37;;
22967;SDS011;11650;48.106;-1.696;2023-10-08T02:59:22;11.00;;;6.07;;
22967;SDS011;11650;48.106;-1.696;2023-10-08T03:01:48;9.67;;;6.27;;
22967;SDS011;11650;48.106;-1.696;2023-10-08T03:04:14;11.43;;;6.13;;
22967;SDS011;11650;48.106;-1.696;2023-10-08T03:06:47;13.93;;;6.60;;
22967;SDS011;11650;48.106;-1.696;2023-10-08T03:09:20;11.70;;;6.57;;
22967;SDS011;11650;48.106;-1.696;2023-10-08T03:11:48;15.73;;;6.57;;
22967;SDS011;11650;48.106;-1.696;2023-10-08T03:14:18;13.47;;;6.93;;
22967;SDS011;11650;48.106;-1.696;2023-10-08T03:16:50;15.27;;;7.23;;
22967;SDS011;11650;48.106;-1.696;2023-10-08T03:19:18;12.80;;;6.43;;
22967;SDS011;11650;48.106;-1.696;2023-10-08T03:21:48;15.10;;;6.70;;
22967;SDS011;11650;48.106;-1.696;2023-10-08T03:24:20;14.07;;;6.93;;
22967;SDS011;11650;48.106;-1.696;2023-10-08T03:27:04;11.27;;;6.40;;
22967;SDS011;11650;48.106;-1.696;2023-10-08T03:29:34;11.70;;;7.10;;
22967;SDS011;11650;48.106;-1.696;2023-10-08T03:32:10;13.07;;;6.37;;
22967;SDS011;11650;48.106;-1.696;2023-10-08T03:34:46;13.77;;;6.50;;
22967;SDS011;11650;48.106;-1.696;2023-10-08T03:37:16;12.80;;;6.57;;
22967;SDS011;11650;48.106;-1.696;2023-10-08T03:39:49;14.17;;;6.37;;
22967;SDS011;11650;48.106;-1.696;2023-10-08T03:42:34;14.93;;;7.00;;
22967;SDS011;11650;48.106;-1.696;2023-10-08T03:45:05;12.33;;;6.53;;
22967;SDS011;11650;48.106;-1.696;2023-10-08T03:47:37;15.13;;;7.00;;
22967;SDS011;11650;48.106;-1.696;2023-10-08T03:50:07;13.73;;;6.93;;
22967;SDS011;11650;48.106;-1.696;2023-10-08T03:52:35;14.67;;;6.97;;
22967;SDS011;11650;48.106;-1.696;2023-10-08T03:55:06;17.50;;;7.03;;
22967;SDS011;11650;48.106;-1.696;2023-10-08T03:57:44;10.90;;;6.60;;
22967;SDS011;11650;48.106;-1.696;2023-10-08T04:00:21;13.83;;;6.60;;
22967;SDS011;11650;48.106;-1.696;2023-10-08T04:02:54;11.63;;;7.13;;
22967;SDS011;11650;48.106;-1.696;2023-10-08T04:05:26;14.33;;;7.07;;
22967;SDS011;11650;48.106;-1.696;2023-10-08T04:08:12;15.17;;;7.10;;
22967;SDS011;11650;48.106;-1.696;2023-10-08T04:11:07;14.20;;;7.00;;
22967;SDS011;11650;48.106;-1.696;2023-10-08T04:13:53;11.77;;;6.60;;
22967;SDS011;11650;48.106;-1.696;2023-10-08T04:16:18;11.87;;;6.83;;
22967;SDS011;11650;48.106;-1.696;2023-10-08T04:18:46;11.63;;;6.80;;
22967;SDS011;11650;48.106;-1.696;2023-10-08T04:21:15;13.40;;;7.10;;
22967;SDS011;11650;48.106;-1.696;2023-10-08T04:23:45;11.80;;;7.23;;
22967;SDS011;11650;48.106;-1.696;2023-10-08T04:26:16;13.53;;;7.37;;
22967;SDS011;11650;48.106;-1.696;2023-10-08T04:28:43;11.83;;;7.40;;
22967;SDS011;11650;48.106;-1.696;2023-10-08T04:31:08;15.87;;;7.70;;
22967;SDS011;11650;48.106;-1.696;2023-10-08T04:33:43;15.73;;;8.00;;
22967;SDS011;11650;48.106;-1.696;2023-10-08T04:36:10;13.87;;;7.17;;
22967;SDS011;11650;48.106;-1.696;2023-10-08T04:38:42;11.10;;;6.60;;
22967;SDS011;11650;48.106;-1.696;2023-10-08T04:41:10;12.83;;;7.33;;
22967;SDS011;11650;48.106;-1.696;2023-10-08T04:43:36;11.60;;;7.07;;
22967;SDS011;11650;48.106;-1.696;2023-10-08T04:46:08;10.63;;;7.43;;
22967;SDS011;11650;48.106;-1.696;2023-10-08T04:48:52;12.07;;;6.80;;
22967;SDS011;11650;48.106;-1.696;2023-10-08T04:51:18;12.67;;;7.53;;
22967;SDS011;11650;48.106;-1.696;2023-10-08T04:53:46;11.47;;;7.37;;
22967;SDS011;11650;48.106;-1.696;2023-10-08T04:56:12;12.67;;;6.73;;
22967;SDS011;11650;48.106;-1.696;2023-10-08T04:58:42;14.37;;;6.97;;
22967;SDS011;11650;48.106;-1.696;2023-10-08T05:01:15;10.80;;;6.73;;
22967;SDS011;11650;48.106;-1.696;2023-10-08T05:03:45;14.07;;;6.93;;
22967;SDS011;11650;48.106;-1.696;2023-10-08T05:06:32;12.73;;;7.33;;
22967;SDS011;11650;48.106;-1.696;2023-10-08T05:09:00;11.10;;;6.23;;
22967;SDS011;11650;48.106;-1.696;2023-10-08T05:11:44;13.03;;;7.30;;
22967;SDS011;11650;48.106;-1.696;2023-10-08T05:14:21;10.53;;;6.57;;
22967;SDS011;11650;48.106;-1.696;2023-10-08T05:17:05;12.63;;;6.30;;
22967;SDS011;11650;48.106;-1.696;2023-10-08T05:19:36;11.47;;;6.57;;
22967;SDS011;11650;48.106;-1.696;2023-10-08T05:22:05;13.47;;;6.70;;
22967;SDS011;11650;48.106;-1.696;2023-10-08T05:24:53;12.03;;;7.07;;
22967;SDS011;11650;48.106;-1.696;2023-10-08T05:27:38;12.17;;;7.27;;
22967;SDS011;11650;48.106;-1.696;2023-10-08T05:32:50;11.77;;;6.67;;
22967;SDS011;11650;48.106;-1.696;2023-10-08T05:35:36;14.27;;;6.83;;
22967;SDS011;11650;48.106;-1.696;2023-10-08T05:38:06;13.30;;;6.70;;
22967;SDS011;11650;48.106;-1.696;2023-10-08T05:40:47;12.37;;;6.90;;
22967;SDS011;11650;48.106;-1.696;2023-10-08T05:43:22;11.87;;;6.80;;
22967;SDS011;11650;48.106;-1.696;2023-10-08T05:46:09;13.83;;;6.77;;
22967;SDS011;11650;48.106;-1.696;2023-10-08T05:48:51;12.67;;;7.00;;
22967;SDS011;11650;48.106;-1.696;2023-10-08T05:51:29;10.07;;;6.17;;
22967;SDS011;11650;48.106;-1.696;2023-10-08T05:54:14;9.70;;;6.27;;
22967;SDS011;11650;48.106;-1.696;2023-10-08T05:57:10;12.33;;;6.30;;
22967;SDS011;11650;48.106;-1.696;2023-10-08T05:59:45;11.30;;;6.60;;
22967;SDS011;11650;48.106;-1.696;2023-10-08T06:04:53;10.40;;;6.03;;
22967;SDS011;11650;48.106;-1.696;2023-10-08T06:07:49;11.87;;;6.97;;
22967;SDS011;11650;48.106;-1.696;2023-10-08T06:10:22;11.77;;;6.40;;
22967;SDS011;11650;48.106;-1.696;2023-10-08T06:13:12;12.83;;;7.30;;
22967;SDS011;11650;48.106;-1.696;2023-10-08T06:15:42;11.13;;;6.57;;
22967;SDS011;11650;48.106;-1.696;2023-10-08T06:18:13;11.07;;;7.13;;
22967;SDS011;11650;48.106;-1.696;2023-10-08T06:20:50;10.67;;;6.13;;
22967;SDS011;11650;48.106;-1.696;2023-10-08T06:23:32;11.43;;;6.43;;
22967;SDS011;11650;48.106;-1.696;2023-10-08T06:26:00;12.97;;;7.03;;
22967;SDS011;11650;48.106;-1.696;2023-10-08T06:28:35;13.00;;;7.07;;
22967;SDS011;11650;48.106;-1.696;2023-10-08T06:31:03;12.87;;;6.70;;
22967;SDS011;11650;48.106;-1.696;2023-10-08T06:33:36;13.53;;;6.90;;
22967;SDS011;11650;48.106;-1.696;2023-10-08T06:36:04;9.47;;;6.23;;
22967;SDS011;11650;48.106;-1.696;2023-10-08T06:38:41;12.13;;;6.77;;
22967;SDS011;11650;48.106;-1.696;2023-10-08T06:41:10;11.40;;;6.37;;
22967;SDS011;11650;48.106;-1.696;2023-10-08T06:43:39;14.83;;;6.70;;
22967;SDS011;11650;48.106;-1.696;2023-10-08T06:46:13;11.57;;;6.80;;
22967;SDS011;11650;48.106;-1.696;2023-10-08T06:48:40;14.60;;;6.40;;
22967;SDS011;11650;48.106;-1.696;2023-10-08T06:51:10;11.50;;;6.53;;
22967;SDS011;11650;48.106;-1.696;2023-10-08T06:53:42;10.37;;;6.33;;
22967;SDS011;11650;48.106;-1.696;2023-10-08T06:56:10;12.40;;;6.27;;
22967;SDS011;11650;48.106;-1.696;2023-10-08T06:58:40;13.07;;;6.90;;
22967;SDS011;11650;48.106;-1.696;2023-10-08T07:01:12;12.50;;;7.20;;
22967;SDS011;11650;48.106;-1.696;2023-10-08T07:03:38;13.67;;;6.77;;
22967;SDS011;11650;48.106;-1.696;2023-10-08T07:06:04;10.87;;;6.60;;
22967;SDS011;11650;48.106;-1.696;2023-10-08T07:08:42;12.63;;;6.50;;
22967;SDS011;11650;48.106;-1.696;2023-10-08T07:11:11;12.47;;;6.57;;
22967;SDS011;11650;48.106;-1.696;2023-10-08T07:13:38;12.63;;;6.70;;
22967;SDS011;11650;48.106;-1.696;2023-10-08T07:16:07;12.00;;;6.47;;
22967;SDS011;11650;48.106;-1.696;2023-10-08T07:18:36;11.97;;;6.97;;
22967;SDS011;11650;48.106;-1.696;2023-10-08T07:21:03;9.60;;;5.97;;
22967;SDS011;11650;48.106;-1.696;2023-10-08T07:23:37;11.03;;;6.57;;
22967;SDS011;11650;48.106;-1.696;2023-10-08T07:26:20;12.10;;;6.53;;
22967;SDS011;11650;48.106;-1.696;2023-10-08T07:28:50;9.27;;;6.20;;
22967;SDS011;11650;48.106;-1.696;2023-10-08T07:31:21;8.33;;;5.20;;
22967;SDS011;11650;48.106;-1.696;2023-10-08T07:33:49;9.77;;;5.97;;
22967;SDS011;11650;48.106;-1.696;2023-10-08T07:36:26;12.03;;;5.87;;
22967;SDS011;11650;48.106;-1.696;2023-10-08T07:38:53;11.87;;;5.87;;
22967;SDS011;11650;48.106;-1.696;2023-10-08T07:41:19;10.53;;;5.50;;
22967;SDS011;11650;48.106;-1.696;2023-10-08T07:43:46;9.80;;;5.53;;
22967;SDS011;11650;48.106;-1.696;2023-10-08T07:46:21;10.90;;;5.87;;
22967;SDS011;11650;48.106;-1.696;2023-10-08T07:48:47;10.90;;;5.23;;
22967;SDS011;11650;48.106;-1.696;2023-10-08T07:51:13;13.67;;;5.80;;
22967;SDS011;11650;48.106;-1.696;2023-10-08T07:53:39;12.30;;;5.80;;
22967;SDS011;11650;48.106;-1.696;2023-10-08T07:56:07;9.97;;;6.27;;
22967;SDS011;11650;48.106;-1.696;2023-10-08T07:58:34;9.53;;;5.53;;
22967;SDS011;11650;48.106;-1.696;2023-10-08T08:01:06;10.23;;;5.50;;
22967;SDS011;11650;48.106;-1.696;2023-10-08T08:03:34;12.27;;;5.67;;
22967;SDS011;11650;48.106;-1.696;2023-10-08T08:06:06;11.20;;;5.70;;
22967;SDS011;11650;48.106;-1.696;2023-10-08T08:08:33;11.27;;;5.67;;
22967;SDS011;11650;48.106;-1.696;2023-10-08T08:11:00;9.57;;;5.57;;
22967;SDS011;11650;48.106;-1.696;2023-10-08T08:13:37;10.97;;;5.93;;
22967;SDS011;11650;48.106;-1.696;2023-10-08T08:16:04;9.03;;;5.47;;
22967;SDS011;11650;48.106;-1.696;2023-10-08T08:18:50;8.77;;;5.10;;
22967;SDS011;11650;48.106;-1.696;2023-10-08T08:21:18;8.47;;;5.10;;
22967;SDS011;11650;48.106;-1.696;2023-10-08T08:23:47;10.43;;;5.30;;
22967;SDS011;11650;48.106;-1.696;2023-10-08T08:26:16;8.93;;;4.73;;
22967;SDS011;11650;48.106;-1.696;2023-10-08T08:28:54;8.37;;;4.50;;
22967;SDS011;11650;48.106;-1.696;2023-10-08T08:31:29;9.43;;;5.00;;
22967;SDS011;11650;48.106;-1.696;2023-10-08T08:34:00;8.33;;;4.40;;
22967;SDS011;11650;48.106;-1.696;2023-10-08T08:36:28;9.87;;;4.93;;
22967;SDS011;11650;48.106;-1.696;2023-10-08T08:38:56;8.80;;;4.93;;
22967;SDS011;11650;48.106;-1.696;2023-10-08T08:41:23;9.57;;;5.00;;
22967;SDS011;11650;48.106;-1.696;2023-10-08T08:43:53;10.83;;;4.83;;
22967;SDS011;11650;48.106;-1.696;2023-10-08T08:46:57;11.37;;;4.93;;
22967;SDS011;11650;48.106;-1.696;2023-10-08T08:49:16;12.23;;;5.43;;
22967;SDS011;11650;48.106;-1.696;2023-10-08T08:51:43;8.83;;;5.27;;
22967;SDS011;11650;48.106;-1.696;2023-10-08T08:54:13;8.80;;;4.80;;
22967;SDS011;11650;48.106;-1.696;2023-10-08T08:56:41;10.30;;;4.77;;
22967;SDS011;11650;48.106;-1.696;2023-10-08T08:59:09;11.30;;;5.37;;
22967;SDS011;11650;48.106;-1.696;2023-10-08T09:01:40;9.80;;;5.13;;
22967;SDS011;11650;48.106;-1.696;2023-10-08T09:04:07;11.17;;;5.27;;
22967;SDS011;11650;48.106;-1.696;2023-10-08T09:06:36;9.97;;;5.17;;
22967;SDS011;11650;48.106;-1.696;2023-10-08T09:09:06;8.17;;;4.77;;
22967;SDS011;11650;48.106;-1.696;2023-10-08T09:11:50;11.07;;;5.07;;
22967;SDS011;11650;48.106;-1.696;2023-10-08T09:14:20;10.70;;;4.70;;
22967;SDS011;11650;48.106;-1.696;2023-10-08T09:16:55;7.73;;;4.60;;
22967;SDS011;11650;48.106;-1.696;2023-10-08T09:19:21;9.50;;;4.27;;
22967;SDS011;11650;48.106;-1.696;2023-10-08T09:24:29;8.50;;;4.00;;
22967;SDS011;11650;48.106;-1.696;2023-10-08T09:26:59;9.03;;;4.83;;
22967;SDS011;11650;48.106;-1.696;2023-10-08T09:29:26;11.33;;;4.57;;
22967;SDS011;11650;48.106;-1.696;2023-10-08T09:31:53;13.27;;;4.53;;
22967;SDS011;11650;48.106;-1.696;2023-10-08T09:34:28;8.53;;;3.80;;
22967;SDS011;11650;48.106;-1.696;2023-10-08T09:36:55;9.33;;;3.60;;
22967;SDS011;11650;48.106;-1.696;2023-10-08T09:39:23;7.03;;;3.10;;
22967;SDS011;11650;48.106;-1.696;2023-10-08T09:41:50;9.37;;;3.37;;
22967;SDS011;11650;48.106;-1.696;2023-10-08T09:44:19;11.60;;;3.63;;
22967;SDS011;11650;48.106;-1.696;2023-10-08T09:46:47;11.67;;;4.13;;
22967;SDS011;11650;48.106;-1.696;2023-10-08T09:49:18;10.63;;;4.77;;
22967;SDS011;11650;48.106;-1.696;2023-10-08T09:51:53;7.50;;;3.50;;
22967;SDS011;11650;48.106;-1.696;2023-10-08T09:54:23;8.83;;;3.50;;
22967;SDS011;11650;48.106;-1.696;2023-10-08T09:56:56;7.87;;;3.70;;
22967;SDS011;11650;48.106;-1.696;2023-10-08T09:59:25;7.63;;;3.57;;
22967;SDS011;11650;48.106;-1.696;2023-10-08T10:01:53;6.33;;;3.33;;
22967;SDS011;11650;48.106;-1.696;2023-10-08T10:04:24;7.83;;;3.60;;
22967;SDS011;11650;48.106;-1.696;2023-10-08T10:06:50;6.10;;;3.00;;
22967;SDS011;11650;48.106;-1.696;2023-10-08T10:09:20;6.80;;;3.00;;
22967;SDS011;11650;48.106;-1.696;2023-10-08T10:11:50;7.37;;;3.10;;
22967;SDS011;11650;48.106;-1.696;2023-10-08T10:14:21;9.10;;;3.33;;
22967;SDS011;11650;48.106;-1.696;2023-10-08T10:16:48;7.70;;;3.33;;
22967;SDS011;11650;48.106;-1.696;2023-10-08T10:19:29;8.23;;;3.53;;
22967;SDS011;11650;48.106;-1.696;2023-10-08T10:21:55;6.70;;;3.67;;
22967;SDS011;11650;48.106;-1.696;2023-10-08T10:24:33;8.60;;;3.07;;
22967;SDS011;11650;48.106;-1.696;2023-10-08T10:27:13;8.57;;;3.87;;
22967;SDS011;11650;48.106;-1.696;2023-10-08T10:29:41;7.33;;;3.47;;
22967;SDS011;11650;48.106;-1.696;2023-10-08T10:32:12;7.47;;;3.40;;
22967;SDS011;11650;48.106;-1.696;2023-10-08T10:34:44;8.63;;;3.10;;
22967;SDS011;11650;48.106;-1.696;2023-10-08T10:37:12;9.70;;;3.30;;
22967;SDS011;11650;48.106;-1.696;2023-10-08T10:39:54;6.97;;;3.27;;
22967;SDS011;11650;48.106;-1.696;2023-10-08T10:42:24;9.57;;;3.03;;
22967;SDS011;11650;48.106;-1.696;2023-10-08T10:44:51;6.23;;;3.30;;
22967;SDS011;11650;48.106;-1.696;2023-10-08T10:47:18;9.07;;;3.60;;
22967;SDS011;11650;48.106;-1.696;2023-10-08T10:49:47;10.73;;;3.57;;
22967;SDS011;11650;48.106;-1.696;2023-10-08T10:52:14;6.67;;;3.40;;
22967;SDS011;11650;48.106;-1.696;2023-10-08T10:54:56;7.20;;;3.40;;
22967;SDS011;11650;48.106;-1.696;2023-10-08T10:57:43;7.97;;;3.43;;
22967;SDS011;11650;48.106;-1.696;2023-10-08T11:00:36;7.57;;;3.83;;
22967;SDS011;11650;48.106;-1.696;2023-10-08T11:03:03;6.13;;;3.33;;
22967;SDS011;11650;48.106;-1.696;2023-10-08T11:05:35;7.13;;;3.70;;
22967;SDS011;11650;48.106;-1.696;2023-10-08T11:08:05;8.03;;;3.67;;
22967;SDS011;11650;48.106;-1.696;2023-10-08T11:10:39;8.93;;;3.83;;
22967;SDS011;11650;48.106;-1.696;2023-10-08T11:13:12;6.63;;;3.70;;
22967;SDS011;11650;48.106;-1.696;2023-10-08T11:15:44;7.43;;;4.00;;
22967;SDS011;11650;48.106;-1.696;2023-10-08T11:18:18;7.23;;;3.33;;
22967;SDS011;11650;48.106;-1.696;2023-10-08T11:20:46;7.63;;;3.23;;
22967;SDS011;11650;48.106;-1.696;2023-10-08T11:26:01;6.07;;;3.37;;
22967;SDS011;11650;48.106;-1.696;2023-10-08T11:28:34;8.47;;;4.03;;
22967;SDS011;11650;48.106;-1.696;2023-10-08T11:31:07;7.87;;;3.80;;
22967;SDS011;11650;48.106;-1.696;2023-10-08T11:33:42;5.80;;;3.40;;
22967;SDS011;11650;48.106;-1.696;2023-10-08T11:36:19;7.57;;;3.90;;
22967;SDS011;11650;48.106;-1.696;2023-10-08T11:38:47;9.73;;;4.40;;
22967;SDS011;11650;48.106;-1.696;2023-10-08T11:41:14;11.37;;;4.03;;
22967;SDS011;11650;48.106;-1.696;2023-10-08T11:43:49;7.37;;;3.93;;
22967;SDS011;11650;48.106;-1.696;2023-10-08T11:46:22;7.43;;;4.00;;
22967;SDS011;11650;48.106;-1.696;2023-10-08T11:49:03;9.70;;;4.00;;
22967;SDS011;11650;48.106;-1.696;2023-10-08T11:51:33;6.83;;;4.00;;
22967;SDS011;11650;48.106;-1.696;2023-10-08T11:54:02;7.77;;;4.20;;
22967;SDS011;11650;48.106;-1.696;2023-10-08T11:56:31;7.13;;;3.53;;
22967;SDS011;11650;48.106;-1.696;2023-10-08T11:58:59;7.73;;;3.80;;
22967;SDS011;11650;48.106;-1.696;2023-10-08T12:01:30;6.63;;;3.20;;
22967;SDS011;11650;48.106;-1.696;2023-10-08T12:04:00;8.07;;;3.50;;
22967;SDS011;11650;48.106;-1.696;2023-10-08T12:06:26;6.53;;;4.20;;
22967;SDS011;11650;48.106;-1.696;2023-10-08T12:08:55;8.13;;;4.07;;
22967;SDS011;11650;48.106;-1.696;2023-10-08T12:11:24;7.97;;;3.40;;
22967;SDS011;11650;48.106;-1.696;2023-10-08T12:13:56;6.57;;;3.27;;
22967;SDS011;11650;48.106;-1.696;2023-10-08T12:16:24;7.07;;;3.70;;
22967;SDS011;11650;48.106;-1.696;2023-10-08T12:18:54;7.50;;;3.43;;
22967;SDS011;11650;48.106;-1.696;2023-10-08T12:21:27;7.80;;;4.07;;
22967;SDS011;11650;48.106;-1.696;2023-10-08T12:23:57;9.57;;;3.85;;
22967;SDS011;11650;48.106;-1.696;2023-10-08T12:26:23;8.30;;;3.97;;
22967;SDS011;11650;48.106;-1.696;2023-10-08T12:28:49;5.55;;;3.40;;
22967;SDS011;11650;48.106;-1.696;2023-10-08T12:31:19;7.27;;;3.73;;
22967;SDS011;11650;48.106;-1.696;2023-10-08T12:33:49;6.88;;;3.78;;
22967;SDS011;11650;48.106;-1.696;2023-10-08T12:36:18;6.60;;;4.03;;
22967;SDS011;11650;48.106;-1.696;2023-10-08T12:39:02;9.00;;;3.90;;
22967;SDS011;11650;48.106;-1.696;2023-10-08T12:41:35;10.23;;;3.63;;
22967;SDS011;11650;48.106;-1.696;2023-10-08T12:44:03;8.77;;;4.00;;
22967;SDS011;11650;48.106;-1.696;2023-10-08T12:46:32;6.63;;;3.75;;
22967;SDS011;11650;48.106;-1.696;2023-10-08T12:48:59;5.38;;;3.40;;
22967;SDS011;11650;48.106;-1.696;2023-10-08T12:51:26;7.82;;;4.15;;
22967;SDS011;11650;48.106;-1.696;2023-10-08T12:53:56;8.15;;;4.13;;
22967;SDS011;11650;48.106;-1.696;2023-10-08T12:56:29;6.28;;;3.60;;
22967;SDS011;11650;48.106;-1.696;2023-10-08T12:59:03;6.82;;;3.58;;
22967;SDS011;11650;48.106;-1.696;2023-10-08T13:01:31;9.80;;;3.90;;
22967;SDS011;11650;48.106;-1.696;2023-10-08T13:04:02;7.60;;;4.05;;
22967;SDS011;11650;48.106;-1.696;2023-10-08T13:06:32;9.40;;;3.85;;
22967;SDS011;11650;48.106;-1.696;2023-10-08T13:09:04;5.72;;;3.92;;
22967;SDS011;11650;48.106;-1.696;2023-10-08T13:11:39;6.18;;;3.70;;
22967;SDS011;11650;48.106;-1.696;2023-10-08T13:14:05;7.40;;;3.60;;
22967;SDS011;11650;48.106;-1.696;2023-10-08T13:16:31;5.90;;;3.85;;
22967;SDS011;11650;48.106;-1.696;2023-10-08T13:18:58;5.32;;;3.47;;
22967;SDS011;11650;48.106;-1.696;2023-10-08T13:21:24;4.68;;;3.22;;
22967;SDS011;11650;48.106;-1.696;2023-10-08T13:23:51;4.97;;;3.33;;
22967;SDS011;11650;48.106;-1.696;2023-10-08T13:26:17;6.78;;;3.63;;
22967;SDS011;11650;48.106;-1.696;2023-10-08T13:28:43;8.73;;;3.40;;
22967;SDS011;11650;48.106;-1.696;2023-10-08T13:31:09;6.88;;;3.50;;
22967;SDS011;11650;48.106;-1.696;2023-10-08T13:33:36;4.88;;;3.20;;
22967;SDS011;11650;48.106;-1.696;2023-10-08T13:36:07;6.57;;;3.83;;
22967;SDS011;11650;48.106;-1.696;2023-10-08T13:38:34;5.95;;;3.35;;
22967;SDS011;11650;48.106;-1.696;2023-10-08T13:41:06;6.88;;;3.95;;
22967;SDS011;11650;48.106;-1.696;2023-10-08T13:43:43;6.57;;;3.60;;
22967;SDS011;11650;48.106;-1.696;2023-10-08T13:46:13;7.72;;;3.55;;
22967;SDS011;11650;48.106;-1.696;2023-10-08T13:48:41;6.30;;;3.47;;
22967;SDS011;11650;48.106;-1.696;2023-10-08T13:51:07;6.38;;;3.45;;
22967;SDS011;11650;48.106;-1.696;2023-10-08T13:53:39;8.48;;;3.35;;
22967;SDS011;11650;48.106;-1.696;2023-10-08T13:56:12;8.18;;;3.53;;
22967;SDS011;11650;48.106;-1.696;2023-10-08T13:58:38;8.13;;;3.70;;
22967;SDS011;11650;48.106;-1.696;2023-10-08T14:01:11;7.10;;;3.47;;
22967;SDS011;11650;48.106;-1.696;2023-10-08T14:03:49;5.63;;;3.60;;
22967;SDS011;11650;48.106;-1.696;2023-10-08T14:06:19;7.57;;;3.40;;
22967;SDS011;11650;48.106;-1.696;2023-10-08T14:08:45;4.90;;;3.30;;
22967;SDS011;11650;48.106;-1.696;2023-10-08T14:11:19;8.95;;;3.70;;
22967;SDS011;11650;48.106;-1.696;2023-10-08T14:13:48;9.82;;;3.70;;
22967;SDS011;11650;48.106;-1.696;2023-10-08T14:16:16;9.40;;;3.50;;
22967;SDS011;11650;48.106;-1.696;2023-10-08T14:18:43;6.10;;;3.90;;
22967;SDS011;11650;48.106;-1.696;2023-10-08T14:21:15;9.13;;;3.50;;
22967;SDS011;11650;48.106;-1.696;2023-10-08T14:23:43;7.53;;;3.60;;
22967;SDS011;11650;48.106;-1.696;2023-10-08T14:26:09;7.20;;;3.72;;
22967;SDS011;11650;48.106;-1.696;2023-10-08T14:28:36;6.82;;;3.42;;
22967;SDS011;11650;48.106;-1.696;2023-10-08T14:31:16;9.23;;;4.60;;
22967;SDS011;11650;48.106;-1.696;2023-10-08T14:33:42;7.45;;;3.78;;
22967;SDS011;11650;48.106;-1.696;2023-10-08T14:36:21;7.03;;;3.60;;
22967;SDS011;11650;48.106;-1.696;2023-10-08T14:39:07;6.93;;;3.58;;
22967;SDS011;11650;48.106;-1.696;2023-10-08T14:41:51;5.57;;;3.60;;
22967;SDS011;11650;48.106;-1.696;2023-10-08T14:44:36;7.07;;;4.07;;
22967;SDS011;11650;48.106;-1.696;2023-10-08T14:47:02;5.72;;;3.45;;
22967;SDS011;11650;48.106;-1.696;2023-10-08T14:49:32;7.72;;;4.07;;
22967;SDS011;11650;48.106;-1.696;2023-10-08T14:51:58;6.88;;;3.60;;
22967;SDS011;11650;48.106;-1.696;2023-10-08T14:54:24;5.95;;;3.60;;
22967;SDS011;11650;48.106;-1.696;2023-10-08T14:56:50;6.38;;;3.95;;
22967;SDS011;11650;48.106;-1.696;2023-10-08T14:59:17;6.85;;;3.90;;
22967;SDS011;11650;48.106;-1.696;2023-10-08T15:01:43;9.05;;;3.88;;
22967;SDS011;11650;48.106;-1.696;2023-10-08T15:04:10;7.35;;;3.70;;